Terminal Aerodrome Forecast
Issued by NWS Milwaukee/Sullivan, WI

Home | Current Version | Previous Version | Text Only | Print | Product List | Glossary On
Versions: 1 2 3 4 5 6 7 8 9 10 11 12 13 14 15 16 17 18 19 20 21 22 23 24 25 26 27 28 29 30 31 32 33 34 35 36 37 38 39 40 41 42 43 44 45 46 47 48 49 50
000
FTUS43 KMKX 260520
TAFMSN
TAF
KMSN 260520Z 2606/2706 00000KT P6SM SCT200
     FM261100 00000KT P6SM OVC100
     FM261600 18006KT 2SM -SN BKN012 OVC040
     FM262000 18006KT 3SM -SN OVC010
     FM270000 20004KT 4SM -FZDZ BR OVC010
     FM270400 26004KT 4SM BR OVC007=

USA.gov is the U.S. government's official web portal to all federal, state and local government web resources and services.